Time;durP1;ratioP1;P1;durP2;ratioP2;P2;SDS_P1;SDS_P2;PMS_P1;PMS_P2;Temp;Humidity;BMP_temperature;BMP_pressure;BME280_temperature;BME280_humidity;BME280_pressure;Samples;Min_cycle;Max_cycle;Signal;HPM_P1;HPM_P2
2024/02/18 00:01:18;;;;;;;3.10;1.60;;;;;;;6.38;72.51;102028.05;129609;1259;114763;-64
2024/02/18 00:04:31;;;;;;;5.50;2.50;;;;;;;6.37;72.40;102027.70;129511;1280;128622;-64
2024/02/18 00:07:33;;;;;;;4.70;2.10;;;;;;;6.35;72.19;102031.61;129597;1261;114788;-65
2024/02/18 00:10:37;;;;;;;3.20;1.30;;;;;;;6.31;71.84;102038.02;129648;1261;114716;-66
2024/02/18 00:13:39;;;;;;;4.20;2.10;;;;;;;6.28;71.85;102038.20;129642;1261;114701;-65
2024/02/18 00:16:42;;;;;;;3.70;2.00;;;;;;;6.26;71.86;102037.15;129590;1261;114677;-65
2024/02/18 00:19:44;;;;;;;3.60;1.70;;;;;;;6.25;71.76;102042.47;129748;1261;114774;-64
2024/02/18 00:22:46;;;;;;;5.10;1.60;;;;;;;6.24;71.82;102049.21;129429;1280;128470;-65
2024/02/18 00:25:48;;;;;;;4.10;2.00;;;;;;;6.22;71.84;102047.27;129488;1277;115156;-65
2024/02/18 00:28:51;;;;;;;5.90;2.30;;;;;;;6.22;72.01;102048.16;129595;1262;115079;-65
2024/02/18 00:31:53;;;;;;;6.80;2.10;;;;;;;6.22;72.06;102048.70;129622;1261;114732;-64
2024/02/18 00:34:56;;;;;;;22.50;10.00;;;;;;;6.21;71.97;102052.77;129477;1264;116394;-63
2024/02/18 00:37:59;;;;;;;5.80;2.30;;;;;;;6.20;72.17;102050.83;129587;1261;114781;-66
2024/02/18 00:41:03;;;;;;;3.30;1.90;;;;;;;6.21;72.04;102055.08;129564;1261;114704;-66
2024/02/18 00:44:05;;;;;;;5.10;3.10;;;;;;;6.21;71.99;102055.77;129677;1257;114770;-66
2024/02/18 00:47:07;;;;;;;4.30;1.80;;;;;;;6.21;72.15;102061.46;129715;1259;115324;-66
2024/02/18 00:50:10;;;;;;;5.30;1.70;;;;;;;6.22;72.23;102061.46;129571;1261;114715;-66
2024/02/18 00:53:12;;;;;;;4.80;2.10;;;;;;;6.23;72.27;102063.59;129562;1259;114783;-66
2024/02/18 00:56:14;;;;;;;4.00;1.80;;;;;;;6.22;72.03;102059.52;129567;1261;114781;-66
2024/02/18 00:59:17;;;;;;;6.60;2.30;;;;;;;6.22;71.88;102056.84;129562;1257;114851;-66
2024/02/18 01:02:19;;;;;;;3.20;1.70;;;;;;;6.22;72.11;102060.21;129638;1259;114746;-64
2024/02/18 01:05:21;;;;;;;2.70;1.50;;;;;;;6.23;71.80;102062.17;129562;1280;114810;-64
2024/02/18 01:08:24;;;;;;;3.30;1.80;;;;;;;6.22;71.78;102060.39;129673;1261;114726;-64
2024/02/18 01:11:26;;;;;;;3.40;1.70;;;;;;;6.22;71.72;102060.05;129557;1261;114693;-64
2024/02/18 01:14:28;;;;;;;5.60;2.10;;;;;;;6.23;71.85;102055.08;129523;1263;114869;-64
2024/02/18 01:17:31;;;;;;;5.40;1.90;;;;;;;6.23;71.98;102052.95;129538;1275;115076;-64
2024/02/18 01:20:33;;;;;;;5.20;1.70;;;;;;;6.22;71.73;102053.83;129674;1259;114738;-64
2024/02/18 01:23:36;;;;;;;4.50;2.00;;;;;;;6.22;71.62;102053.65;129500;1261;114782;-65
2024/02/18 01:26:38;;;;;;;3.80;1.30;;;;;;;6.20;71.50;102051.02;129279;1261;248613;-64
2024/02/18 01:29:40;;;;;;;4.70;1.90;;;;;;;6.19;71.44;102052.61;129425;1261;114694;-64
2024/02/18 01:32:42;;;;;;;4.60;1.30;;;;;;;6.18;71.39;102052.44;129574;1261;114786;-65
2024/02/18 01:35:45;;;;;;;4.90;1.70;;;;;;;6.15;71.08;102055.80;129378;1259;114723;-64
2024/02/18 01:38:47;;;;;;;4.40;2.50;;;;;;;6.13;71.27;102061.13;129521;1261;114798;-64
2024/02/18 01:41:50;;;;;;;4.70;2.10;;;;;;;6.06;71.87;102064.70;129574;1259;114825;-64
2024/02/18 01:44:53;;;;;;;4.80;2.30;;;;;;;5.98;72.09;102062.75;129390;1280;128930;-64
2024/02/18 01:47:56;;;;;;;7.90;3.20;;;;;;;5.88;72.23;102065.05;129494;1258;114729;-64
2024/02/18 01:50:58;;;;;;;6.90;2.70;;;;;;;5.79;72.49;102066.84;129655;1263;114730;-64
2024/02/18 01:54:00;;;;;;;4.80;2.50;;;;;;;5.72;72.57;102065.77;129474;1259;115090;-64
2024/02/18 01:57:06;;;;;;;7.10;2.90;;;;;;;5.63;72.48;102064.91;129591;1261;114785;-64
2024/02/18 02:00:12;;;;;;;8.40;3.40;;;;;;;5.56;72.56;102066.69;129550;1261;114702;-64
2024/02/18 02:03:15;;;;;;;4.20;1.80;;;;;;;5.54;72.75;102065.45;129238;1264;128435;-64
2024/02/18 02:06:17;;;;;;;5.20;2.00;;;;;;;5.54;72.96;102070.41;129606;1261;114742;-64
2024/02/18 02:09:20;;;;;;;4.90;2.20;;;;;;;5.54;72.79;102074.13;129598;1261;114732;-64
2024/02/18 02:12:22;;;;;;;5.90;3.40;;;;;;;5.52;72.98;102070.40;129583;1262;114797;-64
2024/02/18 02:15:25;;;;;;;4.10;2.90;;;;;;;5.51;72.93;102066.33;129621;1261;114772;-64
2024/02/18 02:18:27;;;;;;;5.10;2.70;;;;;;;5.47;72.87;102067.20;129391;1262;116452;-64
2024/02/18 02:21:29;;;;;;;4.60;2.30;;;;;;;5.42;72.72;102065.26;129422;1259;115194;-64
2024/02/18 02:24:31;;;;;;;6.20;3.20;;;;;;;5.36;72.78;102069.70;129508;1257;114710;-66
2024/02/18 02:27:38;;;;;;;6.70;3.30;;;;;;;5.32;72.75;102071.27;129208;1261;116489;-64
2024/02/18 02:30:40;;;;;;;6.90;3.50;;;;;;;5.30;72.92;102069.51;129538;1277;114770;-64
2024/02/18 02:33:45;;;;;;;6.10;2.80;;;;;;;5.29;72.92;102061.19;129515;1261;115389;-64
2024/02/18 02:36:48;;;;;;;4.40;2.50;;;;;;;5.28;73.09;102059.59;129324;1259;114885;-64
2024/02/18 02:39:53;;;;;;;3.70;2.00;;;;;;;5.27;72.99;102065.77;129524;1261;114829;-64
2024/02/18 02:42:55;;;;;;;4.30;2.10;;;;;;;5.23;72.99;102066.65;129381;1276;115009;-63
2024/02/18 02:45:57;;;;;;;8.20;2.30;;;;;;;5.22;73.15;102063.65;129657;1273;114711;-65
2024/02/18 02:48:59;;;;;;;5.10;3.00;;;;;;;5.21;73.23;102072.15;129625;1263;114755;-64
2024/02/18 02:52:02;;;;;;;5.80;2.10;;;;;;;5.20;73.13;102072.33;129264;1259;114796;-64
2024/02/18 02:55:05;;;;;;;3.80;1.90;;;;;;;5.21;73.18;102070.92;129493;1262;114721;-64
2024/02/18 02:58:07;;;;;;;4.90;2.90;;;;;;;5.20;73.33;102072.86;129618;1264;114762;-64
2024/02/18 03:01:09;;;;;;;5.00;2.30;;;;;;;5.20;73.37;102075.16;129521;1259;116211;-64
2024/02/18 03:04:12;;;;;;;4.10;1.40;;;;;;;5.18;73.30;102074.45;129469;1280;114752;-65
2024/02/18 03:07:14;;;;;;;6.50;2.50;;;;;;;5.14;72.92;102076.56;129555;1262;114672;-64
2024/02/18 03:10:16;;;;;;;7.30;3.00;;;;;;;5.12;73.12;102084.90;129590;1261;115255;-64
2024/02/18 03:13:19;;;;;;;5.70;2.00;;;;;;;5.10;73.22;102087.36;129596;1271;114912;-64
2024/02/18 03:16:21;;;;;;;3.60;2.10;;;;;;;5.10;73.46;102088.96;129706;1261;114712;-64
2024/02/18 03:19:24;;;;;;;2.80;1.30;;;;;;;5.09;73.43;102089.48;129437;1262;114818;-64
2024/02/18 03:22:26;;;;;;;3.90;1.80;;;;;;;5.10;73.47;102093.56;129548;1259;115402;-63
2024/02/18 03:25:28;;;;;;;3.20;2.00;;;;;;;5.08;73.25;102097.98;129514;1280;114710;-63
2024/02/18 03:28:30;;;;;;;3.70;1.90;;;;;;;5.08;73.56;102090.19;129567;1280;114960;-64
2024/02/18 03:31:34;;;;;;;4.60;2.40;;;;;;;5.07;73.52;102092.48;129626;1261;114819;-64
2024/02/18 03:34:36;;;;;;;3.50;2.00;;;;;;;5.06;73.32;102095.49;129553;1261;114787;-63
2024/02/18 03:37:38;;;;;;;3.80;1.70;;;;;;;5.04;73.44;102098.86;129618;1261;114771;-63
2024/02/18 03:40:41;;;;;;;4.40;1.60;;;;;;;5.00;73.35;102101.51;129504;1275;128972;-64
2024/02/18 03:43:43;;;;;;;3.20;1.70;;;;;;;4.97;73.12;102101.16;129679;1280;114722;-64
2024/02/18 03:46:45;;;;;;;3.70;2.10;;;;;;;4.95;73.52;102094.94;129582;1275;114992;-63
2024/02/18 03:49:48;;;;;;;3.90;1.60;;;;;;;4.94;73.38;102091.76;129552;1259;115409;-63
2024/02/18 03:52:50;;;;;;;5.70;2.20;;;;;;;4.94;73.36;102091.21;129557;1261;114771;-66
2024/02/18 03:55:52;;;;;;;3.00;1.70;;;;;;;4.92;73.01;102090.15;129633;1270;114800;-65
2024/02/18 03:58:56;;;;;;;2.30;1.10;;;;;;;4.88;73.34;102093.86;129387;1269;114845;-64
2024/02/18 04:01:58;;;;;;;3.70;1.90;;;;;;;4.85;73.06;102095.80;129556;1264;128218;-64
2024/02/18 04:05:00;;;;;;;3.50;1.80;;;;;;;4.84;73.06;102095.97;129456;1274;114802;-64
2024/02/18 04:08:02;;;;;;;4.20;2.00;;;;;;;4.82;73.00;102100.56;129604;1261;115313;-65
2024/02/18 04:11:04;;;;;;;3.70;2.20;;;;;;;4.81;73.46;102100.74;129558;1259;114810;-64
2024/02/18 04:14:07;;;;;;;2.60;1.70;;;;;;;4.80;73.24;102103.23;129574;1271;114735;-64
2024/02/18 04:17:09;;;;;;;3.20;2.10;;;;;;;4.76;73.10;102101.61;129505;1261;114709;-64
2024/02/18 04:20:11;;;;;;;2.80;1.60;;;;;;;4.75;73.35;102105.68;129573;1269;114728;-65
2024/02/18 04:23:14;;;;;;;4.90;2.10;;;;;;;4.76;73.35;102102.67;129326;1280;128536;-64
2024/02/18 04:26:17;;;;;;;3.70;1.90;;;;;;;4.76;73.61;102099.83;129449;1271;114713;-64
2024/02/18 04:29:19;;;;;;;5.40;1.80;;;;;;;4.74;73.32;102102.48;129480;1262;114717;-64
2024/02/18 04:32:21;;;;;;;5.20;2.40;;;;;;;4.72;73.31;102099.10;129530;1262;114780;-64
2024/02/18 04:35:23;;;;;;;4.00;2.50;;;;;;;4.73;73.69;102101.94;129412;1258;114823;-64
2024/02/18 04:38:25;;;;;;;3.30;2.20;;;;;;;4.72;73.37;102094.34;129443;1271;114794;-65
2024/02/18 04:41:28;;;;;;;1.70;0.90;;;;;;;4.69;73.52;102088.13;129476;1259;114785;-64
2024/02/18 04:44:30;;;;;;;6.50;1.80;;;;;;;4.63;73.34;102086.70;129578;1263;114784;-64
2024/02/18 04:47:32;;;;;;;3.10;2.10;;;;;;;4.61;73.36;102086.50;129342;1264;114805;-64
2024/02/18 04:50:34;;;;;;;4.20;1.90;;;;;;;4.56;73.29;102090.73;129427;1263;114778;-64
2024/02/18 04:53:37;;;;;;;4.70;1.90;;;;;;;4.53;73.33;102088.60;129524;1269;115250;-64
2024/02/18 04:56:39;;;;;;;4.90;1.90;;;;;;;4.52;73.41;102085.06;129556;1263;115042;-64
2024/02/18 04:59:41;;;;;;;7.10;2.50;;;;;;;4.50;73.26;102079.91;129483;1264;114702;-64
2024/02/18 05:02:44;;;;;;;3.70;1.70;;;;;;;4.48;73.48;102085.74;129589;1261;115636;-64
2024/02/18 05:05:46;;;;;;;3.10;1.80;;;;;;;4.47;73.09;102076.71;129321;1266;128212;-64
2024/02/18 05:08:48;;;;;;;5.00;2.50;;;;;;;4.45;73.14;102070.34;129550;1271;114709;-64
2024/02/18 05:11:51;;;;;;;4.20;2.60;;;;;;;4.43;73.36;102067.67;129569;1274;115060;-64
2024/02/18 05:14:53;;;;;;;5.30;2.10;;;;;;;4.43;73.41;102069.27;129549;1280;114922;-63
2024/02/18 05:17:55;;;;;;;12.20;3.90;;;;;;;4.41;73.56;102067.48;129587;1280;114723;-64
2024/02/18 05:21:03;;;;;;;14.60;4.80;;;;;;;4.38;73.59;102068.71;129642;1259;114735;-64
2024/02/18 05:24:06;;;;;;;14.80;5.80;;;;;;;4.35;73.63;102069.77;129510;1280;129036;-64
2024/02/18 05:27:08;;;;;;;12.90;5.30;;;;;;;4.33;73.71;102078.59;129518;1280;114714;-63
2024/02/18 05:30:11;;;;;;;11.50;4.80;;;;;;;4.33;73.78;102082.48;129677;1271;115394;-64
2024/02/18 05:33:14;;;;;;;9.60;5.10;;;;;;;4.34;74.01;102086.91;129599;1271;114770;-64
2024/02/18 05:36:17;;;;;;;6.00;2.80;;;;;;;4.34;74.11;102090.98;129470;1263;115136;-64
2024/02/18 05:39:19;;;;;;;5.50;3.00;;;;;;;4.34;74.08;102098.23;129469;1265;114860;-64
2024/02/18 05:42:21;;;;;;;4.90;2.50;;;;;;;4.35;74.30;102104.08;129503;1262;114787;-63
2024/02/18 05:45:30;;;;;;;4.00;2.20;;;;;;;4.37;74.32;102111.17;129524;1280;128535;-63
2024/02/18 05:48:32;;;;;;;5.70;2.90;;;;;;;4.38;74.57;102108.34;129540;1280;114807;-64
2024/02/18 05:51:35;;;;;;;5.10;3.20;;;;;;;4.40;74.43;102109.59;129506;1262;114794;-64
2024/02/18 05:54:37;;;;;;;6.40;2.60;;;;;;;4.38;74.38;102110.45;129563;1260;114953;-63
2024/02/18 05:57:39;;;;;;;8.10;3.70;;;;;;;4.34;74.31;102113.63;129614;1261;115162;-63
2024/02/18 06:00:42;;;;;;;8.90;3.80;;;;;;;4.30;74.33;102116.42;129416;1259;114946;-63
2024/02/18 06:03:43;;;;;;;6.30;3.40;;;;;;;4.29;74.36;102118.55;129561;1260;115036;-63
2024/02/18 06:06:46;;;;;;;9.00;3.30;;;;;;;4.27;74.14;102118.72;129538;1262;114782;-64
2024/02/18 06:09:48;;;;;;;8.50;3.70;;;;;;;4.25;74.28;102116.76;129348;1280;114982;-63
2024/02/18 06:12:50;;;;;;;6.80;3.50;;;;;;;4.26;74.34;102115.88;129448;1275;114671;-63
2024/02/18 06:15:53;;;;;;;4.50;2.50;;;;;;;4.29;74.59;102114.83;129690;1264;114731;-64
2024/02/18 06:18:55;;;;;;;5.00;2.60;;;;;;;4.29;74.44;102111.48;129364;1262;114886;-64
2024/02/18 06:21:57;;;;;;;5.70;2.90;;;;;;;4.28;74.24;102113.60;129878;1263;115080;-64
2024/02/18 06:25:00;;;;;;;4.30;2.10;;;;;;;4.29;74.34;102116.61;129612;1264;114776;-64
2024/02/18 06:28:07;;;;;;;8.20;4.20;;;;;;;4.31;74.57;102118.02;129512;1280;128989;-64
2024/02/18 06:31:09;;;;;;;11.80;6.60;;;;;;;4.30;74.29;102117.30;129549;1280;114834;-64
2024/02/18 06:34:11;;;;;;;13.90;7.10;;;;;;;4.28;74.19;102117.14;129554;1271;114765;-64
2024/02/18 06:37:15;;;;;;;9.60;5.40;;;;;;;4.30;74.21;102118.39;129584;1263;115360;-63
2024/02/18 06:40:17;;;;;;;11.30;6.80;;;;;;;4.31;74.23;102122.98;129454;1271;114880;-63
2024/02/18 06:43:19;;;;;;;9.80;4.80;;;;;;;4.33;74.18;102123.34;129571;1277;114702;-64
2024/02/18 06:46:21;;;;;;;6.90;3.60;;;;;;;4.36;74.18;102127.61;129521;1274;114734;-63
2024/02/18 06:49:23;;;;;;;5.60;2.90;;;;;;;4.39;74.02;102134.52;129208;1267;128146;-63
2024/02/18 06:52:25;;;;;;;6.50;2.70;;;;;;;4.44;74.18;102134.19;129512;1263;114739;-64
2024/02/18 06:55:29;;;;;;;7.30;2.90;;;;;;;4.52;74.43;102124.52;129636;1263;114797;-64
2024/02/18 06:58:31;;;;;;;5.70;2.40;;;;;;;4.61;74.73;102118.89;129530;1261;114780;-65
2024/02/18 07:01:33;;;;;;;5.00;2.30;;;;;;;4.69;74.54;102110.42;129660;1262;114758;-65
2024/02/18 07:04:35;;;;;;;5.90;3.40;;;;;;;4.74;73.75;102108.32;129565;1261;114748;-65
2024/02/18 07:07:38;;;;;;;5.10;2.90;;;;;;;4.73;73.36;102104.95;129566;1271;114725;-65
2024/02/18 07:10:41;;;;;;;4.80;2.30;;;;;;;4.79;73.75;102107.81;129680;1262;114783;-65
2024/02/18 07:13:43;;;;;;;4.80;3.00;;;;;;;4.90;73.54;102115.83;129634;1272;114794;-65
2024/02/18 07:16:46;;;;;;;5.30;3.20;;;;;;;5.00;73.51;102118.86;129575;1271;114828;-65
2024/02/18 07:19:51;;;;;;;5.00;2.50;;;;;;;5.08;73.12;102122.23;129498;1280;114723;-65
2024/02/18 07:22:53;;;;;;;;;;;;;;;5.14;73.10;102123.32;129437;1262;114760;-63
2024/02/18 07:25:57;;;;;;;4.30;2.00;;;;;;;5.21;73.34;102114.48;129684;1264;127557;-64
2024/02/18 07:28:59;;;;;;;6.70;2.90;;;;;;;5.30;72.83;102116.80;129510;1263;114782;-63
2024/02/18 07:32:02;;;;;;;4.30;2.20;;;;;;;5.40;72.88;102117.17;129951;1260;114738;-64
2024/02/18 07:35:09;;;;;;;4.10;2.60;;;;;;;5.51;72.55;102116.30;129446;1280;114820;-64
2024/02/18 07:38:11;;;;;;;5.00;2.20;;;;;;;5.64;72.92;102122.33;129576;1271;114770;-64
2024/02/18 07:41:13;;;;;;;5.30;2.10;;;;;;;5.80;72.74;102124.29;129644;1263;115046;-63
2024/02/18 07:44:16;;;;;;;5.60;2.60;;;;;;;5.96;72.66;102127.12;129610;1261;115011;-63
2024/02/18 07:47:18;;;;;;;4.80;2.00;;;;;;;6.04;71.93;102126.08;129523;1261;114775;-64
2024/02/18 07:50:20;;;;;;;4.30;2.00;;;;;;;6.09;71.54;102129.97;129493;1262;114782;-63
2024/02/18 07:53:23;;;;;;;5.80;2.30;;;;;;;6.17;71.50;102127.29;129850;1263;115206;-64
2024/02/18 07:56:25;;;;;;;3.60;1.90;;;;;;;6.26;71.31;102126.21;129440;1262;114764;-64
2024/02/18 07:59:27;;;;;;;4.20;2.30;;;;;;;6.37;71.47;102127.42;129471;1262;114700;-64
2024/02/18 08:02:30;;;;;;;5.30;2.30;;;;;;;6.47;71.25;102126.16;129869;1262;114715;-64
2024/02/18 08:05:32;;;;;;;5.10;2.20;;;;;;;6.55;70.53;102127.20;129369;1262;116353;-64
2024/02/18 08:08:35;;;;;;;4.50;2.30;;;;;;;6.57;69.80;102124.17;129539;1264;114758;-64
2024/02/18 08:11:37;;;;;;;6.40;2.50;;;;;;;6.59;69.88;102114.95;129625;1261;115381;-64
2024/02/18 08:14:40;;;;;;;4.30;2.90;;;;;;;6.68;70.18;102110.81;129635;1263;114747;-65
2024/02/18 08:17:42;;;;;;;5.00;3.10;;;;;;;6.82;69.96;102105.08;129576;1257;114812;-63
2024/02/18 08:20:45;;;;;;;5.40;2.70;;;;;;;6.95;69.88;102097.91;129588;1262;114819;-64
2024/02/18 08:23:59;;;;;;;3.60;2.10;;;;;;;7.12;70.10;102091.95;129752;1272;114797;-65
2024/02/18 08:27:02;;;;;;;5.50;2.30;;;;;;;7.24;69.57;102092.41;129552;1280;130207;-63
2024/02/18 08:30:06;;;;;;;3.10;1.70;;;;;;;7.39;69.79;102094.08;129738;1280;114706;-63
2024/02/18 08:33:08;;;;;;;3.30;2.00;;;;;;;7.49;69.01;102099.52;129637;1277;114774;-64
2024/02/18 08:36:10;;;;;;;3.20;1.80;;;;;;;7.55;68.94;102094.84;129445;1271;114745;-64
2024/02/18 08:39:12;;;;;;;7.10;2.10;;;;;;;7.68;68.90;102095.81;129764;1271;114727;-64
2024/02/18 08:42:14;;;;;;;3.40;2.00;;;;;;;7.78;69.07;102098.21;129394;1264;114791;-64
2024/02/18 08:45:16;;;;;;;3.50;1.60;;;;;;;7.88;68.29;102100.08;129615;1257;114962;-65
2024/02/18 08:48:18;;;;;;;4.20;2.40;;;;;;;7.96;67.87;102092.54;129605;1272;114713;-62
2024/02/18 08:51:21;;;;;;;4.80;1.60;;;;;;;8.05;67.63;102087.81;129396;1265;114710;-64
2024/02/18 08:54:23;;;;;;;2.60;1.40;;;;;;;8.12;67.52;102084.70;129544;1261;115335;-63
2024/02/18 08:57:25;;;;;;;3.00;1.90;;;;;;;8.19;67.30;102089.98;129795;1261;114765;-63
2024/02/18 09:00:27;;;;;;;5.90;1.90;;;;;;;8.24;66.86;102092.78;129604;1257;115138;-64
2024/02/18 09:03:31;;;;;;;7.10;1.90;;;;;;;8.35;67.03;102089.80;129453;1264;115006;-65
2024/02/18 09:06:33;;;;;;;4.10;1.20;;;;;;;8.48;66.95;102077.21;129312;1280;128516;-64
2024/02/18 09:09:35;;;;;;;3.50;1.90;;;;;;;8.55;65.40;102072.86;129614;1271;115296;-64
2024/02/18 09:12:38;;;;;;;3.90;2.10;;;;;;;8.57;65.46;102070.89;129653;1258;114767;-64
2024/02/18 09:15:40;;;;;;;3.80;1.80;;;;;;;8.54;64.60;102076.09;129598;1261;115396;-65
2024/02/18 09:18:41;;;;;;;3.10;2.00;;;;;;;8.54;64.57;102076.43;129251;1267;115139;-64
2024/02/18 09:21:43;;;;;;;5.20;1.30;;;;;;;8.59;64.59;102071.22;129445;1258;115366;-64
2024/02/18 09:24:46;;;;;;;5.20;2.00;;;;;;;8.65;64.53;102072.56;129704;1263;114699;-65
2024/02/18 09:27:48;;;;;;;5.30;1.90;;;;;;;8.81;64.85;102070.03;129526;1257;128580;-65
2024/02/18 09:30:50;;;;;;;5.40;2.40;;;;;;;8.98;64.87;102070.87;129691;1257;114732;-65
2024/02/18 09:33:52;;;;;;;3.70;2.40;;;;;;;9.13;64.46;102072.44;129550;1263;115412;-65
2024/02/18 09:36:54;;;;;;;5.60;2.10;;;;;;;9.32;64.37;102067.34;129412;1271;114870;-65
2024/02/18 09:39:56;;;;;;;3.40;2.30;;;;;;;9.51;63.79;102070.05;129436;1271;114853;-65
2024/02/18 09:42:59;;;;;;;3.50;1.60;;;;;;;9.69;63.21;102066.00;129606;1262;114762;-65
2024/02/18 09:46:02;;;;;;;4.10;1.80;;;;;;;9.74;62.68;102063.25;129517;1272;114778;-65
2024/02/18 09:49:05;;;;;;;4.70;3.00;;;;;;;9.71;61.94;102054.36;129601;1271;115432;-65
2024/02/18 09:52:13;;;;;;;4.30;2.20;;;;;;;9.63;61.75;102052.73;129434;1280;114857;-64
2024/02/18 09:55:15;;;;;;;3.90;2.10;;;;;;;9.58;61.77;102048.19;129521;1264;114805;-64
2024/02/18 09:58:19;;;;;;;3.40;2.00;;;;;;;9.57;61.91;102043.02;129578;1262;115362;-65
2024/02/18 10:01:22;;;;;;;3.30;2.20;;;;;;;9.60;62.01;102038.15;129596;1261;115072;-66
2024/02/18 10:04:27;;;;;;;4.70;1.80;;;;;;;9.68;61.93;102035.35;129651;1257;114775;-66
2024/02/18 10:07:32;;;;;;;;;;;;;;;9.68;61.84;102031.94;129573;1257;114713;-64
2024/02/18 10:10:41;;;;;;;3.10;2.00;;;;;;;9.65;61.14;102027.73;129382;1280;114824;-66
2024/02/18 10:13:43;;;;;;;5.30;1.80;;;;;;;9.72;61.08;102017.60;129721;1280;115271;-65
2024/02/18 10:16:45;;;;;;;3.40;1.30;;;;;;;9.83;61.36;102021.33;129582;1279;114782;-64
2024/02/18 10:19:50;;;;;;;4.50;2.30;;;;;;;9.87;60.74;102019.64;129539;1264;114825;-64
2024/02/18 10:22:52;;;;;;;3.60;1.70;;;;;;;9.92;60.32;102018.66;129652;1264;128355;-65
2024/02/18 10:25:54;;;;;;;3.20;1.70;;;;;;;9.87;60.34;102016.97;129502;1259;115176;-64
2024/02/18 10:28:56;;;;;;;3.40;2.10;;;;;;;9.82;60.38;102008.67;129708;1272;114801;-64
2024/02/18 10:31:58;;;;;;;3.30;1.50;;;;;;;9.82;60.54;102003.33;129476;1264;114788;-65
2024/02/18 10:35:04;;;;;;;4.20;1.80;;;;;;;9.84;60.29;101998.65;129497;1277;114722;-65
2024/02/18 10:38:09;;;;;;;2.80;1.60;;;;;;;9.85;59.69;101996.84;129596;1264;114739;-64
2024/02/18 10:41:31;;;;;;;4.00;1.80;;;;;;;9.81;59.46;101996.21;129622;1264;128665;-65
2024/02/18 10:44:36;;;;;;;2.70;1.40;;;;;;;9.73;59.30;101990.27;129594;1280;114698;-66
2024/02/18 10:47:41;;;;;;;4.80;2.30;;;;;;;9.64;59.01;101986.89;129678;1261;114753;-66
2024/02/18 10:50:44;;;;;;;;;;;;;;;9.54;58.91;101976.36;129806;1261;114725;-66
2024/02/18 10:53:50;;;;;;;4.30;2.10;;;;;;;9.42;58.55;101963.38;129570;1273;114701;-66
2024/02/18 10:56:54;;;;;;;4.40;1.80;;;;;;;9.25;58.40;101954.41;129763;1280;128836;-65
2024/02/18 11:00:03;;;;;;;3.70;2.20;;;;;;;9.17;59.01;101950.98;129739;1280;114811;-65
2024/02/18 11:03:20;;;;;;;4.50;2.00;;;;;;;9.14;58.75;101942.65;129536;1262;115129;-65
2024/02/18 11:06:22;;;;;;;2.80;1.90;;;;;;;9.08;58.45;101939.20;129532;1260;114908;-66
2024/02/18 11:09:26;;;;;;;5.90;2.20;;;;;;;9.04;58.67;101941.75;129527;1273;114859;-64
2024/02/18 11:12:29;;;;;;;3.60;2.60;;;;;;;9.04;58.67;101933.20;129677;1277;114800;-64
2024/02/18 11:15:32;;;;;;;5.30;2.30;;;;;;;9.10;58.75;101924.36;129472;1261;114798;-65
2024/02/18 11:18:34;;;;;;;4.30;2.80;;;;;;;9.16;57.99;101914.46;129582;1261;115131;-64
2024/02/18 11:21:36;;;;;;;6.00;3.10;;;;;;;9.17;58.48;101912.48;129527;1275;114789;-64
2024/02/18 11:24:38;;;;;;;5.70;3.60;;;;;;;9.26;58.70;101909.98;129443;1262;114735;-64
2024/02/18 11:27:40;;;;;;;5.20;3.90;;;;;;;9.36;58.86;101905.00;129503;1280;114775;-64
2024/02/18 11:30:42;;;;;;;7.00;3.20;;;;;;;9.50;59.05;101899.04;129577;1280;115484;-64
2024/02/18 11:33:44;;;;;;;5.70;3.70;;;;;;;9.64;58.53;101897.16;129356;1280;128591;-64
2024/02/18 11:36:46;;;;;;;6.80;3.40;;;;;;;9.73;58.40;101895.38;129523;1280;114723;-65
2024/02/18 11:39:58;;;;;;;4.00;2.80;;;;;;;9.80;57.84;101893.43;129544;1276;114803;-64
2024/02/18 11:43:00;;;;;;;7.30;3.70;;;;;;;9.90;58.35;101881.10;129534;1260;114722;-65
2024/02/18 11:46:02;;;;;;;3.90;2.20;;;;;;;10.02;58.18;101875.14;129426;1261;114726;-64
2024/02/18 11:49:05;;;;;;;6.00;3.60;;;;;;;10.08;57.31;101868.93;129586;1280;114717;-65
2024/02/18 11:52:07;;;;;;;6.50;4.20;;;;;;;10.08;57.21;101863.06;129293;1275;114794;-65
2024/02/18 11:55:24;;;;;;;5.90;3.60;;;;;;;10.09;57.07;101859.46;129372;1258;114798;-65
2024/02/18 11:58:26;;;;;;;5.40;3.40;;;;;;;10.03;56.89;101856.72;129550;1264;114780;-65
2024/02/18 12:01:30;;;;;;;5.50;4.40;;;;;;;9.97;56.86;101850.43;129597;1280;114698;-65
2024/02/18 12:04:32;;;;;;;5.70;4.50;;;;;;;9.95;57.40;101853.14;129528;1261;115268;-65
2024/02/18 12:07:36;;;;;;;7.50;5.10;;;;;;;9.98;57.39;101850.58;129418;1280;114806;-73
2024/02/18 12:10:38;;;;;;;6.20;3.90;;;;;;;10.10;58.08;101845.67;129922;1261;114724;-71
2024/02/18 12:13:40;;;;;;;8.20;3.90;;;;;;;10.22;57.30;101845.59;130153;1261;116241;-70
2024/02/18 12:16:45;;;;;;;5.30;4.30;;;;;;;10.31;57.65;101843.05;129803;1273;114796;-70
2024/02/18 12:19:47;;;;;;;5.50;3.90;;;;;;;10.34;57.58;101841.75;129880;1261;114786;-74
2024/02/18 12:22:49;;;;;;;4.90;4.00;;;;;;;10.36;57.16;101838.84;129820;1264;115329;-71
2024/02/18 12:25:52;;;;;;;5.70;3.80;;;;;;;10.29;57.20;101836.30;129800;1279;114637;-71
2024/02/18 12:28:54;;;;;;;6.40;3.80;;;;;;;10.28;57.54;101839.55;129888;1258;114721;-71
2024/02/18 12:31:56;;;;;;;5.90;3.30;;;;;;;10.30;57.28;101832.91;129874;1261;114760;-76
2024/02/18 12:34:59;;;;;;;2.90;2.00;;;;;;;10.27;57.31;101825.99;129818;1271;114784;-73
2024/02/18 12:38:04;;;;;;;5.60;4.20;;;;;;;10.19;56.76;101819.05;129871;1263;115590;-71
2024/02/18 12:41:06;;;;;;;;;;;;;;;10.12;57.07;101810.27;130258;1260;115332;-70
2024/02/18 12:44:08;;;;;;;5.10;3.40;;;;;;;10.10;57.47;101811.05;129972;1273;114795;-73
2024/02/18 12:47:10;;;;;;;7.90;4.90;;;;;;;10.12;57.83;101807.98;129833;1278;115158;-73
2024/02/18 12:50:12;;;;;;;6.80;4.00;;;;;;;10.08;57.51;101802.90;129641;1279;116689;-71
2024/02/18 12:53:14;;;;;;;5.00;3.00;;;;;;;9.94;56.03;101796.23;129891;1279;115166;-74
2024/02/18 12:56:16;;;;;;;4.70;2.90;;;;;;;9.76;56.44;101791.28;129892;1273;114748;-72
2024/02/18 12:59:18;;;;;;;3.80;2.80;;;;;;;9.61;55.89;101786.43;129583;1263;114854;-71
2024/02/18 13:02:21;;;;;;;3.30;2.20;;;;;;;9.52;56.60;101784.48;129845;1275;114764;-70
2024/02/18 13:05:24;;;;;;;3.20;2.70;;;;;;;9.51;56.61;101779.69;129634;1280;114734;-70
2024/02/18 13:08:26;;;;;;;6.00;3.90;;;;;;;9.49;56.69;101774.21;129459;1266;114821;-71
2024/02/18 13:11:29;;;;;;;6.90;4.40;;;;;;;9.47;56.82;101774.24;129310;1262;114814;-71
2024/02/18 13:14:31;;;;;;;6.30;5.00;;;;;;;9.47;57.07;101769.98;129567;1279;114782;-72
2024/02/18 13:17:33;;;;;;;8.10;4.80;;;;;;;9.51;57.28;101759.35;129987;1258;114818;-72
2024/02/18 13:20:35;;;;;;;8.10;4.60;;;;;;;9.56;57.20;101747.30;129755;1257;114830;-72
2024/02/18 13:23:40;;;;;;;7.00;4.40;;;;;;;9.61;57.36;101747.20;129815;1272;114790;-72
2024/02/18 13:26:42;;;;;;;6.60;4.10;;;;;;;9.63;56.67;101740.56;129707;1261;206695;-72
2024/02/18 13:29:44;;;;;;;6.20;3.90;;;;;;;9.56;56.46;101734.64;129848;1257;115369;-72
2024/02/18 13:32:48;;;;;;;9.00;4.90;;;;;;;9.51;56.55;101722.62;129906;1262;114729;-72
2024/02/18 13:35:50;;;;;;;6.60;3.00;;;;;;;9.47;56.70;101718.08;129764;1271;128550;-71
2024/02/18 13:38:52;;;;;;;7.10;2.90;;;;;;;9.40;56.36;101710.75;129801;1257;114729;-73
2024/02/18 13:41:56;;;;;;;5.10;3.70;;;;;;;9.34;56.72;101709.27;129954;1274;115165;-72
2024/02/18 13:44:58;;;;;;;5.70;3.20;;;;;;;9.30;56.56;101705.25;129847;1261;114751;-71
2024/02/18 13:48:00;;;;;;;6.20;4.00;;;;;;;9.22;56.48;101690.27;129958;1273;115216;-71
2024/02/18 13:51:02;;;;;;;8.60;3.90;;;;;;;9.14;56.52;101681.16;129871;1274;114709;-72
2024/02/18 13:54:06;;;;;;;5.20;3.00;;;;;;;9.10;56.58;101674.66;129893;1261;114935;-70
2024/02/18 13:57:08;;;;;;;5.90;4.00;;;;;;;9.11;57.11;101676.94;130018;1261;127941;-74
2024/02/18 14:00:11;;;;;;;5.10;2.90;;;;;;;9.13;56.83;101681.91;129720;1273;114734;-71